createdAt,value
2023-02-28T00:48:36.593Z,4.10
2023-02-28T03:14:24.447Z,5.48
2023-02-28T03:29:17.749Z,5.57
2023-02-28T03:44:07.720Z,5.47
2023-02-28T03:59:15.578Z,6.04
2023-02-28T04:14:10.308Z,8.82
2023-02-28T04:29:00.237Z,5.38
2023-02-28T04:43:49.172Z,6.32
2023-02-28T04:58:38.933Z,6.38
2023-02-28T05:13:29.008Z,6.16
2023-02-28T05:28:18.553Z,7.01
2023-02-28T05:43:09.028Z,7.27
2023-02-28T05:57:58.946Z,9.59
2023-02-28T06:12:53.872Z,10.28
2023-02-28T06:27:39.931Z,8.11
2023-02-28T06:42:29.478Z,7.87
2023-02-28T06:57:19.917Z,9.11
2023-02-28T07:12:10.512Z,9.47
2023-02-28T07:27:01.112Z,10.60
2023-02-28T07:41:51.032Z,10.09
2023-02-28T07:56:41.056Z,8.42
2023-02-28T08:11:31.384Z,8.62
2023-02-28T08:26:20.174Z,9.26
2023-02-28T08:41:10.518Z,9.47
2023-02-28T08:56:01.534Z,11.39
2023-02-28T09:10:51.910Z,10.69
2023-02-28T09:25:45.356Z,11.08
2023-02-28T09:40:39.198Z,12.79
2023-02-28T09:55:49.155Z,13.11
2023-02-28T10:10:43.114Z,13.18
2023-02-28T10:25:33.105Z,12.44
2023-02-28T10:40:22.971Z,11.11
2023-02-28T10:55:14.300Z,11.73
2023-02-28T11:10:03.203Z,14.40
2023-02-28T11:39:44.161Z,12.60
2023-02-28T11:54:34.488Z,9.43
2023-02-28T12:09:39.534Z,9.69
2023-02-28T12:24:56.724Z,10.13
2023-02-28T12:39:54.296Z,9.77
2023-02-28T12:54:45.498Z,8.06
2023-02-28T13:09:36.150Z,9.62
2023-02-28T13:24:34.894Z,9.68
2023-02-28T13:39:36.355Z,11.73
2023-02-28T13:54:34.570Z,9.26
2023-02-28T14:09:37.443Z,10.88
2023-02-28T14:24:50.999Z,11.97
2023-02-28T14:39:45.288Z,10.48
2023-02-28T14:54:38.914Z,10.37
2023-02-28T15:09:30.846Z,11.00
2023-02-28T15:24:26.355Z,9.81
2023-02-28T15:39:20.921Z,10.53
2023-02-28T15:54:13.562Z,12.82
2023-02-28T16:09:06.969Z,10.11
2023-02-28T16:23:56.644Z,11.46
2023-02-28T16:38:47.311Z,10.91
2023-02-28T16:53:37.515Z,16.34
2023-02-28T17:08:27.310Z,11.51
2023-02-28T17:53:06.065Z,14.12
2023-02-28T18:07:55.917Z,9.64
2023-02-28T18:22:45.639Z,13.42
2023-02-28T18:37:35.687Z,15.84
2023-02-28T18:52:24.941Z,13.80
2023-02-28T19:07:22.477Z,14.68
2023-02-28T19:22:12.123Z,15.56
2023-02-28T19:37:01.799Z,14.19
2023-02-28T19:51:52.039Z,13.82
2023-02-28T20:06:41.478Z,13.91
2023-02-28T20:21:39.453Z,12.66
2023-02-28T20:36:26.518Z,13.70
2023-02-28T20:51:16.698Z,14.56
2023-02-28T21:06:06.862Z,13.50
2023-02-28T21:21:08.724Z,16.44
2023-02-28T21:51:06.300Z,16.17
2023-02-28T22:05:56.475Z,14.57
2023-02-28T22:20:46.330Z,15.84
2023-02-28T22:35:36.796Z,16.91
2023-02-28T22:50:25.961Z,17.58
2023-02-28T23:05:15.886Z,16.10
2023-02-28T23:20:06.303Z,17.59
2023-02-28T23:34:55.817Z,14.59
2023-02-28T23:49:44.851Z,18.84
